sensor_id;sensor_type;location;lat;lon;timestamp;P1;durP1;ratioP1;P2;durP2;ratioP2
43662;SDS011;74813;56.104;40.358;2024-01-30T00:02:04;23.13;;;10.02;;
43662;SDS011;74813;56.104;40.358;2024-01-30T00:04:36;19.33;;;9.75;;
43662;SDS011;74813;56.104;40.358;2024-01-30T00:07:08;23.27;;;10.82;;
43662;SDS011;74813;56.104;40.358;2024-01-30T00:09:41;20.90;;;9.32;;
43662;SDS011;74813;56.104;40.358;2024-01-30T00:12:13;22.27;;;10.38;;
43662;SDS011;74813;56.104;40.358;2024-01-30T00:14:45;19.05;;;8.98;;
43662;SDS011;74813;56.104;40.358;2024-01-30T00:17:18;22.02;;;10.15;;
43662;SDS011;74813;56.104;40.358;2024-01-30T00:19:51;18.02;;;9.82;;
43662;SDS011;74813;56.104;40.358;2024-01-30T00:22:23;19.75;;;8.65;;
43662;SDS011;74813;56.104;40.358;2024-01-30T00:24:55;20.70;;;9.75;;
43662;SDS011;74813;56.104;40.358;2024-01-30T00:27:28;21.73;;;9.57;;
43662;SDS011;74813;56.104;40.358;2024-01-30T00:30:00;19.42;;;8.98;;
43662;SDS011;74813;56.104;40.358;2024-01-30T00:32:32;19.40;;;8.63;;
43662;SDS011;74813;56.104;40.358;2024-01-30T00:35:05;17.30;;;8.25;;
43662;SDS011;74813;56.104;40.358;2024-01-30T00:37:38;18.15;;;9.02;;
43662;SDS011;74813;56.104;40.358;2024-01-30T00:40:10;20.33;;;8.65;;
43662;SDS011;74813;56.104;40.358;2024-01-30T00:42:43;20.83;;;9.27;;
43662;SDS011;74813;56.104;40.358;2024-01-30T00:45:15;19.63;;;9.30;;
43662;SDS011;74813;56.104;40.358;2024-01-30T00:47:48;15.55;;;7.38;;
43662;SDS011;74813;56.104;40.358;2024-01-30T00:50:20;19.42;;;8.75;;
43662;SDS011;74813;56.104;40.358;2024-01-30T00:52:53;17.92;;;8.10;;
43662;SDS011;74813;56.104;40.358;2024-01-30T00:55:25;14.73;;;7.07;;
43662;SDS011;74813;56.104;40.358;2024-01-30T00:57:57;15.32;;;6.88;;
43662;SDS011;74813;56.104;40.358;2024-01-30T01:00:30;18.80;;;8.23;;
43662;SDS011;74813;56.104;40.358;2024-01-30T01:03:03;16.38;;;6.90;;
43662;SDS011;74813;56.104;40.358;2024-01-30T01:05:35;20.48;;;8.38;;
43662;SDS011;74813;56.104;40.358;2024-01-30T01:08:07;16.90;;;7.97;;
43662;SDS011;74813;56.104;40.358;2024-01-30T01:10:40;17.95;;;8.35;;
43662;SDS011;74813;56.104;40.358;2024-01-30T01:13:12;18.60;;;8.68;;
43662;SDS011;74813;56.104;40.358;2024-01-30T01:15:45;15.60;;;7.30;;
43662;SDS011;74813;56.104;40.358;2024-01-30T01:18:17;17.88;;;7.60;;
43662;SDS011;74813;56.104;40.358;2024-01-30T01:20:49;17.90;;;8.40;;
43662;SDS011;74813;56.104;40.358;2024-01-30T01:23:22;17.75;;;7.60;;
43662;SDS011;74813;56.104;40.358;2024-01-30T01:25:54;19.30;;;8.05;;
43662;SDS011;74813;56.104;40.358;2024-01-30T01:28:27;19.55;;;8.43;;
43662;SDS011;74813;56.104;40.358;2024-01-30T01:30:59;20.63;;;8.02;;
43662;SDS011;74813;56.104;40.358;2024-01-30T01:33:32;19.25;;;8.55;;
43662;SDS011;74813;56.104;40.358;2024-01-30T01:36:05;17.55;;;7.65;;
43662;SDS011;74813;56.104;40.358;2024-01-30T01:38:37;17.30;;;8.00;;
43662;SDS011;74813;56.104;40.358;2024-01-30T01:41:09;18.65;;;7.68;;
43662;SDS011;74813;56.104;40.358;2024-01-30T01:43:42;16.20;;;7.80;;
43662;SDS011;74813;56.104;40.358;2024-01-30T01:46:14;17.15;;;7.97;;
43662;SDS011;74813;56.104;40.358;2024-01-30T01:48:49;18.52;;;8.80;;
43662;SDS011;74813;56.104;40.358;2024-01-30T01:51:22;16.60;;;7.53;;
43662;SDS011;74813;56.104;40.358;2024-01-30T01:53:57;16.55;;;7.15;;
43662;SDS011;74813;56.104;40.358;2024-01-30T01:56:33;19.27;;;7.85;;
43662;SDS011;74813;56.104;40.358;2024-01-30T01:59:06;19.85;;;8.40;;
43662;SDS011;74813;56.104;40.358;2024-01-30T02:01:39;16.50;;;7.68;;
43662;SDS011;74813;56.104;40.358;2024-01-30T02:04:13;16.60;;;8.10;;
43662;SDS011;74813;56.104;40.358;2024-01-30T02:06:45;20.60;;;9.50;;
43662;SDS011;74813;56.104;40.358;2024-01-30T02:09:18;17.95;;;9.15;;
43662;SDS011;74813;56.104;40.358;2024-01-30T02:11:50;17.75;;;9.40;;
43662;SDS011;74813;56.104;40.358;2024-01-30T02:14:23;18.60;;;8.10;;
43662;SDS011;74813;56.104;40.358;2024-01-30T02:16:56;20.38;;;8.98;;
43662;SDS011;74813;56.104;40.358;2024-01-30T02:19:28;16.50;;;8.32;;
43662;SDS011;74813;56.104;40.358;2024-01-30T02:22:00;18.17;;;7.93;;
43662;SDS011;74813;56.104;40.358;2024-01-30T02:24:33;16.60;;;7.63;;
43662;SDS011;74813;56.104;40.358;2024-01-30T02:27:05;16.50;;;6.95;;
43662;SDS011;74813;56.104;40.358;2024-01-30T02:29:38;17.83;;;8.38;;
43662;SDS011;74813;56.104;40.358;2024-01-30T02:32:10;16.95;;;6.93;;
43662;SDS011;74813;56.104;40.358;2024-01-30T02:34:42;15.52;;;7.45;;
43662;SDS011;74813;56.104;40.358;2024-01-30T02:37:16;14.63;;;6.93;;
43662;SDS011;74813;56.104;40.358;2024-01-30T02:39:48;14.57;;;6.88;;
43662;SDS011;74813;56.104;40.358;2024-01-30T02:42:21;14.23;;;6.10;;
43662;SDS011;74813;56.104;40.358;2024-01-30T02:44:53;16.38;;;7.32;;
43662;SDS011;74813;56.104;40.358;2024-01-30T02:47:26;17.42;;;7.38;;
43662;SDS011;74813;56.104;40.358;2024-01-30T02:49:58;15.23;;;6.78;;
43662;SDS011;74813;56.104;40.358;2024-01-30T02:52:30;13.55;;;5.72;;
43662;SDS011;74813;56.104;40.358;2024-01-30T02:55:03;15.68;;;6.63;;
43662;SDS011;74813;56.104;40.358;2024-01-30T02:57:37;15.35;;;6.70;;
43662;SDS011;74813;56.104;40.358;2024-01-30T03:00:10;15.10;;;6.88;;
43662;SDS011;74813;56.104;40.358;2024-01-30T03:02:43;16.48;;;7.53;;
43662;SDS011;74813;56.104;40.358;2024-01-30T03:05:15;12.07;;;6.03;;
43662;SDS011;74813;56.104;40.358;2024-01-30T03:07:48;13.52;;;6.05;;
43662;SDS011;74813;56.104;40.358;2024-01-30T03:10:20;15.50;;;7.18;;
43662;SDS011;74813;56.104;40.358;2024-01-30T03:12:53;13.30;;;6.15;;
43662;SDS011;74813;56.104;40.358;2024-01-30T03:15:25;12.43;;;6.38;;
43662;SDS011;74813;56.104;40.358;2024-01-30T03:17:58;14.90;;;6.38;;
43662;SDS011;74813;56.104;40.358;2024-01-30T03:20:30;13.15;;;6.60;;
43662;SDS011;74813;56.104;40.358;2024-01-30T03:23:02;14.77;;;5.75;;
43662;SDS011;74813;56.104;40.358;2024-01-30T03:25:35;11.57;;;5.32;;
43662;SDS011;74813;56.104;40.358;2024-01-30T03:28:07;14.43;;;7.18;;
43662;SDS011;74813;56.104;40.358;2024-01-30T03:30:40;12.85;;;5.55;;
43662;SDS011;74813;56.104;40.358;2024-01-30T03:33:12;14.43;;;7.15;;
43662;SDS011;74813;56.104;40.358;2024-01-30T03:35:44;15.85;;;6.65;;
43662;SDS011;74813;56.104;40.358;2024-01-30T03:38:17;15.65;;;6.90;;
43662;SDS011;74813;56.104;40.358;2024-01-30T03:40:49;12.95;;;6.20;;
43662;SDS011;74813;56.104;40.358;2024-01-30T03:43:22;12.88;;;6.10;;
43662;SDS011;74813;56.104;40.358;2024-01-30T03:45:54;15.68;;;6.55;;
43662;SDS011;74813;56.104;40.358;2024-01-30T03:48:26;17.75;;;7.45;;
43662;SDS011;74813;56.104;40.358;2024-01-30T03:50:59;13.98;;;6.13;;
43662;SDS011;74813;56.104;40.358;2024-01-30T03:53:31;12.32;;;5.28;;
43662;SDS011;74813;56.104;40.358;2024-01-30T03:56:04;11.75;;;5.53;;
43662;SDS011;74813;56.104;40.358;2024-01-30T03:58:36;13.15;;;5.95;;
43662;SDS011;74813;56.104;40.358;2024-01-30T04:01:12;11.77;;;5.20;;
43662;SDS011;74813;56.104;40.358;2024-01-30T04:03:48;11.55;;;5.30;;
43662;SDS011;74813;56.104;40.358;2024-01-30T04:06:20;11.25;;;4.78;;
43662;SDS011;74813;56.104;40.358;2024-01-30T04:08:52;12.35;;;5.50;;
43662;SDS011;74813;56.104;40.358;2024-01-30T04:11:25;12.07;;;5.78;;
43662;SDS011;74813;56.104;40.358;2024-01-30T04:13:57;12.55;;;5.38;;
43662;SDS011;74813;56.104;40.358;2024-01-30T04:16:30;12.88;;;4.95;;
43662;SDS011;74813;56.104;40.358;2024-01-30T04:19:02;13.70;;;6.07;;
43662;SDS011;74813;56.104;40.358;2024-01-30T04:21:34;13.27;;;6.03;;
43662;SDS011;74813;56.104;40.358;2024-01-30T04:24:07;11.93;;;5.65;;
43662;SDS011;74813;56.104;40.358;2024-01-30T04:26:39;13.68;;;4.93;;
43662;SDS011;74813;56.104;40.358;2024-01-30T04:29:11;14.77;;;6.05;;
43662;SDS011;74813;56.104;40.358;2024-01-30T04:31:44;13.57;;;4.88;;
43662;SDS011;74813;56.104;40.358;2024-01-30T04:34:16;10.40;;;5.15;;
43662;SDS011;74813;56.104;40.358;2024-01-30T04:36:49;11.65;;;5.10;;
43662;SDS011;74813;56.104;40.358;2024-01-30T04:39:21;12.68;;;5.47;;
43662;SDS011;74813;56.104;40.358;2024-01-30T04:41:53;11.43;;;4.80;;
43662;SDS011;74813;56.104;40.358;2024-01-30T04:44:26;13.75;;;5.78;;
43662;SDS011;74813;56.104;40.358;2024-01-30T04:46:58;11.63;;;4.68;;
43662;SDS011;74813;56.104;40.358;2024-01-30T04:49:31;14.93;;;5.72;;
43662;SDS011;74813;56.104;40.358;2024-01-30T04:52:03;13.65;;;5.45;;
43662;SDS011;74813;56.104;40.358;2024-01-30T04:54:36;13.13;;;5.43;;
43662;SDS011;74813;56.104;40.358;2024-01-30T04:57:08;10.73;;;4.95;;
43662;SDS011;74813;56.104;40.358;2024-01-30T04:59:41;14.00;;;5.38;;
43662;SDS011;74813;56.104;40.358;2024-01-30T05:02:13;11.45;;;4.53;;
43662;SDS011;74813;56.104;40.358;2024-01-30T05:04:45;11.80;;;5.80;;
43662;SDS011;74813;56.104;40.358;2024-01-30T05:07:18;11.82;;;5.35;;
43662;SDS011;74813;56.104;40.358;2024-01-30T05:09:50;13.73;;;5.80;;
43662;SDS011;74813;56.104;40.358;2024-01-30T05:12:23;15.02;;;6.18;;
43662;SDS011;74813;56.104;40.358;2024-01-30T05:14:55;13.57;;;5.97;;
43662;SDS011;74813;56.104;40.358;2024-01-30T05:17:27;15.32;;;6.25;;
43662;SDS011;74813;56.104;40.358;2024-01-30T05:20:00;14.27;;;5.60;;
43662;SDS011;74813;56.104;40.358;2024-01-30T05:22:32;13.00;;;5.47;;
43662;SDS011;74813;56.104;40.358;2024-01-30T05:25:05;11.90;;;4.65;;
43662;SDS011;74813;56.104;40.358;2024-01-30T05:27:37;13.38;;;5.80;;
43662;SDS011;74813;56.104;40.358;2024-01-30T05:30:10;15.23;;;6.03;;
43662;SDS011;74813;56.104;40.358;2024-01-30T05:32:43;12.43;;;5.50;;
43662;SDS011;74813;56.104;40.358;2024-01-30T05:35:15;14.18;;;5.97;;
43662;SDS011;74813;56.104;40.358;2024-01-30T05:37:48;14.55;;;6.05;;
43662;SDS011;74813;56.104;40.358;2024-01-30T05:40:20;13.15;;;5.38;;
43662;SDS011;74813;56.104;40.358;2024-01-30T05:42:53;12.68;;;5.90;;
43662;SDS011;74813;56.104;40.358;2024-01-30T05:45:25;14.85;;;6.38;;
43662;SDS011;74813;56.104;40.358;2024-01-30T05:47:58;12.63;;;6.28;;
43662;SDS011;74813;56.104;40.358;2024-01-30T05:50:30;14.65;;;6.32;;
43662;SDS011;74813;56.104;40.358;2024-01-30T05:53:03;15.38;;;6.22;;
43662;SDS011;74813;56.104;40.358;2024-01-30T05:55:35;12.65;;;5.43;;
43662;SDS011;74813;56.104;40.358;2024-01-30T05:58:08;12.98;;;5.63;;
43662;SDS011;74813;56.104;40.358;2024-01-30T06:00:40;13.15;;;5.80;;
43662;SDS011;74813;56.104;40.358;2024-01-30T06:03:12;14.57;;;6.70;;
43662;SDS011;74813;56.104;40.358;2024-01-30T06:05:45;12.02;;;5.60;;
43662;SDS011;74813;56.104;40.358;2024-01-30T06:08:17;16.63;;;6.60;;
43662;SDS011;74813;56.104;40.358;2024-01-30T06:10:50;12.68;;;5.00;;
43662;SDS011;74813;56.104;40.358;2024-01-30T06:13:22;12.73;;;5.90;;
43662;SDS011;74813;56.104;40.358;2024-01-30T06:15:55;15.40;;;6.38;;
43662;SDS011;74813;56.104;40.358;2024-01-30T06:18:27;12.65;;;6.00;;
43662;SDS011;74813;56.104;40.358;2024-01-30T06:20:59;14.10;;;6.35;;
43662;SDS011;74813;56.104;40.358;2024-01-30T06:23:32;14.27;;;6.45;;
43662;SDS011;74813;56.104;40.358;2024-01-30T06:26:04;14.73;;;6.32;;
43662;SDS011;74813;56.104;40.358;2024-01-30T06:28:38;12.60;;;5.47;;
43662;SDS011;74813;56.104;40.358;2024-01-30T06:31:10;14.23;;;6.35;;
43662;SDS011;74813;56.104;40.358;2024-01-30T06:33:43;13.80;;;6.15;;
43662;SDS011;74813;56.104;40.358;2024-01-30T06:36:15;22.55;;;8.90;;
43662;SDS011;74813;56.104;40.358;2024-01-30T06:38:47;17.55;;;6.78;;
43662;SDS011;74813;56.104;40.358;2024-01-30T06:41:20;14.13;;;6.45;;
43662;SDS011;74813;56.104;40.358;2024-01-30T06:43:52;12.27;;;6.30;;
43662;SDS011;74813;56.104;40.358;2024-01-30T06:46:25;13.98;;;6.63;;
43662;SDS011;74813;56.104;40.358;2024-01-30T06:48:57;15.00;;;6.25;;
43662;SDS011;74813;56.104;40.358;2024-01-30T06:51:29;10.98;;;4.93;;
43662;SDS011;74813;56.104;40.358;2024-01-30T06:54:02;12.82;;;5.85;;
43662;SDS011;74813;56.104;40.358;2024-01-30T06:56:34;15.85;;;6.60;;
43662;SDS011;74813;56.104;40.358;2024-01-30T06:59:07;14.55;;;6.65;;
43662;SDS011;74813;56.104;40.358;2024-01-30T07:01:39;13.20;;;6.45;;
43662;SDS011;74813;56.104;40.358;2024-01-30T07:04:11;13.98;;;6.22;;
43662;SDS011;74813;56.104;40.358;2024-01-30T07:06:44;14.05;;;6.32;;
43662;SDS011;74813;56.104;40.358;2024-01-30T07:09:16;18.63;;;6.63;;
43662;SDS011;74813;56.104;40.358;2024-01-30T07:11:49;15.60;;;6.85;;
43662;SDS011;74813;56.104;40.358;2024-01-30T07:14:21;14.75;;;5.90;;
43662;SDS011;74813;56.104;40.358;2024-01-30T07:16:53;14.20;;;6.40;;
43662;SDS011;74813;56.104;40.358;2024-01-30T07:19:26;12.30;;;5.90;;
43662;SDS011;74813;56.104;40.358;2024-01-30T07:21:58;14.27;;;6.40;;
43662;SDS011;74813;56.104;40.358;2024-01-30T07:24:31;19.13;;;7.93;;
43662;SDS011;74813;56.104;40.358;2024-01-30T07:27:03;16.13;;;6.13;;
43662;SDS011;74813;56.104;40.358;2024-01-30T07:29:35;19.98;;;8.38;;
43662;SDS011;74813;56.104;40.358;2024-01-30T07:32:08;14.25;;;6.80;;
43662;SDS011;74813;56.104;40.358;2024-01-30T07:34:40;16.50;;;7.15;;
43662;SDS011;74813;56.104;40.358;2024-01-30T07:37:13;12.00;;;5.85;;
43662;SDS011;74813;56.104;40.358;2024-01-30T07:39:45;14.23;;;6.65;;
43662;SDS011;74813;56.104;40.358;2024-01-30T07:42:17;17.02;;;6.38;;
43662;SDS011;74813;56.104;40.358;2024-01-30T07:44:50;13.77;;;5.47;;
43662;SDS011;74813;56.104;40.358;2024-01-30T07:47:22;14.20;;;6.72;;
43662;SDS011;74813;56.104;40.358;2024-01-30T07:49:55;13.35;;;6.32;;
43662;SDS011;74813;56.104;40.358;2024-01-30T07:52:27;12.80;;;6.03;;
43662;SDS011;74813;56.104;40.358;2024-01-30T07:55:00;12.77;;;6.68;;
43662;SDS011;74813;56.104;40.358;2024-01-30T07:57:35;14.05;;;6.57;;
43662;SDS011;74813;56.104;40.358;2024-01-30T08:00:11;14.32;;;6.60;;
43662;SDS011;74813;56.104;40.358;2024-01-30T08:02:43;13.35;;;5.85;;
43662;SDS011;74813;56.104;40.358;2024-01-30T08:05:16;14.27;;;5.25;;
43662;SDS011;74813;56.104;40.358;2024-01-30T08:07:48;15.77;;;6.45;;
43662;SDS011;74813;56.104;40.358;2024-01-30T08:10:22;13.73;;;5.72;;
43662;SDS011;74813;56.104;40.358;2024-01-30T08:12:54;11.43;;;5.45;;
43662;SDS011;74813;56.104;40.358;2024-01-30T08:15:26;12.82;;;5.95;;
43662;SDS011;74813;56.104;40.358;2024-01-30T08:17:59;14.02;;;6.75;;
43662;SDS011;74813;56.104;40.358;2024-01-30T08:20:31;12.95;;;5.60;;
43662;SDS011;74813;56.104;40.358;2024-01-30T08:23:03;13.45;;;6.63;;
43662;SDS011;74813;56.104;40.358;2024-01-30T08:25:36;12.18;;;5.20;;
43662;SDS011;74813;56.104;40.358;2024-01-30T08:28:08;13.85;;;5.78;;
43662;SDS011;74813;56.104;40.358;2024-01-30T08:30:41;13.80;;;5.82;;
43662;SDS011;74813;56.104;40.358;2024-01-30T08:33:13;13.60;;;6.03;;
43662;SDS011;74813;56.104;40.358;2024-01-30T08:35:46;14.57;;;5.50;;
43662;SDS011;74813;56.104;40.358;2024-01-30T08:38:18;11.50;;;5.05;;
43662;SDS011;74813;56.104;40.358;2024-01-30T08:40:50;13.40;;;5.65;;
43662;SDS011;74813;56.104;40.358;2024-01-30T08:43:23;13.32;;;5.28;;
43662;SDS011;74813;56.104;40.358;2024-01-30T08:45:55;11.55;;;5.00;;
43662;SDS011;74813;56.104;40.358;2024-01-30T08:48:27;16.95;;;5.28;;
43662;SDS011;74813;56.104;40.358;2024-01-30T08:51:00;12.73;;;6.20;;
43662;SDS011;74813;56.104;40.358;2024-01-30T08:53:32;17.58;;;6.97;;
43662;SDS011;74813;56.104;40.358;2024-01-30T08:56:05;11.85;;;5.57;;
43662;SDS011;74813;56.104;40.358;2024-01-30T08:58:38;13.25;;;5.75;;
43662;SDS011;74813;56.104;40.358;2024-01-30T09:01:11;12.88;;;5.45;;
43662;SDS011;74813;56.104;40.358;2024-01-30T09:03:43;13.18;;;6.03;;
43662;SDS011;74813;56.104;40.358;2024-01-30T09:06:16;11.25;;;5.57;;
43662;SDS011;74813;56.104;40.358;2024-01-30T09:08:48;11.77;;;5.40;;
43662;SDS011;74813;56.104;40.358;2024-01-30T09:11:20;11.95;;;5.32;;
43662;SDS011;74813;56.104;40.358;2024-01-30T09:13:53;18.13;;;6.40;;
43662;SDS011;74813;56.104;40.358;2024-01-30T09:16:25;13.43;;;5.80;;
43662;SDS011;74813;56.104;40.358;2024-01-30T09:18:58;12.23;;;5.68;;
43662;SDS011;74813;56.104;40.358;2024-01-30T09:21:30;13.43;;;5.45;;
43662;SDS011;74813;56.104;40.358;2024-01-30T09:24:03;12.55;;;5.75;;
43662;SDS011;74813;56.104;40.358;2024-01-30T09:26:35;15.38;;;7.20;;
43662;SDS011;74813;56.104;40.358;2024-01-30T09:29:08;11.63;;;5.22;;
43662;SDS011;74813;56.104;40.358;2024-01-30T09:31:42;14.25;;;5.50;;
43662;SDS011;74813;56.104;40.358;2024-01-30T09:34:18;12.20;;;6.10;;
43662;SDS011;74813;56.104;40.358;2024-01-30T09:36:50;13.00;;;5.28;;
43662;SDS011;74813;56.104;40.358;2024-01-30T09:39:22;13.85;;;6.25;;
43662;SDS011;74813;56.104;40.358;2024-01-30T09:44:37;12.18;;;5.43;;
43662;SDS011;74813;56.104;40.358;2024-01-30T09:47:10;13.05;;;5.90;;
43662;SDS011;74813;56.104;40.358;2024-01-30T09:49:43;16.98;;;6.22;;
43662;SDS011;74813;56.104;40.358;2024-01-30T09:52:16;15.65;;;5.75;;
43662;SDS011;74813;56.104;40.358;2024-01-30T09:54:49;13.88;;;5.38;;
43662;SDS011;74813;56.104;40.358;2024-01-30T09:57:23;18.88;;;5.43;;
43662;SDS011;74813;56.104;40.358;2024-01-30T09:59:55;13.60;;;5.70;;
43662;SDS011;74813;56.104;40.358;2024-01-30T10:02:28;15.43;;;6.05;;
43662;SDS011;74813;56.104;40.358;2024-01-30T10:05:00;15.10;;;5.97;;
43662;SDS011;74813;56.104;40.358;2024-01-30T10:07:33;11.63;;;5.25;;
43662;SDS011;74813;56.104;40.358;2024-01-30T10:10:05;15.82;;;6.60;;
43662;SDS011;74813;56.104;40.358;2024-01-30T10:12:39;13.95;;;5.07;;
43662;SDS011;74813;56.104;40.358;2024-01-30T10:15:11;10.00;;;5.30;;
43662;SDS011;74813;56.104;40.358;2024-01-30T10:17:46;14.35;;;5.47;;
43662;SDS011;74813;56.104;40.358;2024-01-30T10:20:18;11.07;;;4.72;;
43662;SDS011;74813;56.104;40.358;2024-01-30T10:22:51;11.25;;;4.22;;
43662;SDS011;74813;56.104;40.358;2024-01-30T10:25:23;12.27;;;5.28;;
43662;SDS011;74813;56.104;40.358;2024-01-30T10:27:56;13.48;;;5.38;;
43662;SDS011;74813;56.104;40.358;2024-01-30T10:30:28;13.55;;;4.97;;
43662;SDS011;74813;56.104;40.358;2024-01-30T10:33:01;12.35;;;6.15;;
43662;SDS011;74813;56.104;40.358;2024-01-30T10:35:34;12.02;;;5.22;;
43662;SDS011;74813;56.104;40.358;2024-01-30T10:38:06;13.57;;;5.65;;
43662;SDS011;74813;56.104;40.358;2024-01-30T10:40:43;10.68;;;4.68;;
43662;SDS011;74813;56.104;40.358;2024-01-30T10:43:19;11.55;;;4.65;;
43662;SDS011;74813;56.104;40.358;2024-01-30T10:45:54;13.43;;;5.57;;
43662;SDS011;74813;56.104;40.358;2024-01-30T10:48:29;12.02;;;5.00;;
43662;SDS011;74813;56.104;40.358;2024-01-30T10:51:02;10.80;;;4.10;;
43662;SDS011;74813;56.104;40.358;2024-01-30T10:53:36;11.95;;;5.22;;
43662;SDS011;74813;56.104;40.358;2024-01-30T10:56:10;13.07;;;4.88;;
43662;SDS011;74813;56.104;40.358;2024-01-30T10:58:44;12.90;;;5.00;;
43662;SDS011;74813;56.104;40.358;2024-01-30T11:01:18;16.27;;;5.05;;
43662;SDS011;74813;56.104;40.358;2024-01-30T11:03:55;11.75;;;5.22;;
43662;SDS011;74813;56.104;40.358;2024-01-30T11:06:28;12.15;;;5.60;;
43662;SDS011;74813;56.104;40.358;2024-01-30T11:09:01;11.93;;;4.72;;
43662;SDS011;74813;56.104;40.358;2024-01-30T11:11:55;12.25;;;5.00;;
43662;SDS011;74813;56.104;40.358;2024-01-30T11:14:30;13.32;;;4.60;;
43662;SDS011;74813;56.104;40.358;2024-01-30T11:17:03;12.13;;;4.65;;
43662;SDS011;74813;56.104;40.358;2024-01-30T11:19:35;10.55;;;4.95;;
43662;SDS011;74813;56.104;40.358;2024-01-30T11:22:08;12.13;;;5.50;;
43662;SDS011;74813;56.104;40.358;2024-01-30T11:24:40;10.85;;;4.97;;
43662;SDS011;74813;56.104;40.358;2024-01-30T11:27:13;12.55;;;5.38;;
43662;SDS011;74813;56.104;40.358;2024-01-30T11:29:49;17.98;;;5.63;;
43662;SDS011;74813;56.104;40.358;2024-01-30T11:32:22;11.63;;;5.75;;
43662;SDS011;74813;56.104;40.358;2024-01-30T11:34:55;10.50;;;5.13;;
43662;SDS011;74813;56.104;40.358;2024-01-30T11:37:27;9.70;;;4.80;;
43662;SDS011;74813;56.104;40.358;2024-01-30T11:40:00;10.35;;;4.95;;
43662;SDS011;74813;56.104;40.358;2024-01-30T11:42:35;13.13;;;5.07;;
43662;SDS011;74813;56.104;40.358;2024-01-30T11:45:10;10.32;;;5.10;;
43662;SDS011;74813;56.104;40.358;2024-01-30T11:47:42;13.30;;;5.07;;
43662;SDS011;74813;56.104;40.358;2024-01-30T11:50:15;9.73;;;4.20;;
43662;SDS011;74813;56.104;40.358;2024-01-30T11:52:48;10.07;;;4.72;;
43662;SDS011;74813;56.104;40.358;2024-01-30T11:55:21;11.25;;;4.40;;
43662;SDS011;74813;56.104;40.358;2024-01-30T11:57:59;10.13;;;4.18;;
43662;SDS011;74813;56.104;40.358;2024-01-30T12:00:32;11.55;;;4.28;;
43662;SDS011;74813;56.104;40.358;2024-01-30T12:03:04;8.93;;;4.40;;
43662;SDS011;74813;56.104;40.358;2024-01-30T12:05:37;15.85;;;5.70;;
43662;SDS011;74813;56.104;40.358;2024-01-30T12:08:14;12.18;;;4.78;;
43662;SDS011;74813;56.104;40.358;2024-01-30T12:10:54;7.47;;;3.90;;
43662;SDS011;74813;56.104;40.358;2024-01-30T12:13:28;8.82;;;4.38;;
43662;SDS011;74813;56.104;40.358;2024-01-30T12:16:01;9.77;;;5.05;;
43662;SDS011;74813;56.104;40.358;2024-01-30T12:18:34;11.70;;;4.07;;
43662;SDS011;74813;56.104;40.358;2024-01-30T12:21:06;9.25;;;3.80;;
43662;SDS011;74813;56.104;40.358;2024-01-30T12:23:39;10.10;;;4.50;;
43662;SDS011;74813;56.104;40.358;2024-01-30T12:26:12;9.00;;;3.92;;
43662;SDS011;74813;56.104;40.358;2024-01-30T12:28:47;9.10;;;4.15;;
43662;SDS011;74813;56.104;40.358;2024-01-30T12:31:31;9.13;;;4.30;;
43662;SDS011;74813;56.104;40.358;2024-01-30T12:34:04;8.43;;;3.92;;
43662;SDS011;74813;56.104;40.358;2024-01-30T12:36:36;9.40;;;4.57;;
43662;SDS011;74813;56.104;40.358;2024-01-30T12:39:12;8.35;;;3.88;;
43662;SDS011;74813;56.104;40.358;2024-01-30T12:41:44;8.80;;;4.25;;
43662;SDS011;74813;56.104;40.358;2024-01-30T12:44:17;11.02;;;4.00;;
43662;SDS011;74813;56.104;40.358;2024-01-30T12:46:49;9.27;;;4.50;;
43662;SDS011;74813;56.104;40.358;2024-01-30T12:49:22;10.50;;;4.40;;
43662;SDS011;74813;56.104;40.358;2024-01-30T12:51:54;8.80;;;4.65;;
43662;SDS011;74813;56.104;40.358;2024-01-30T12:54:26;10.90;;;4.40;;
43662;SDS011;74813;56.104;40.358;2024-01-30T12:56:59;9.68;;;4.35;;
43662;SDS011;74813;56.104;40.358;2024-01-30T12:59:31;11.15;;;4.40;;
43662;SDS011;74813;56.104;40.358;2024-01-30T13:02:04;8.13;;;3.90;;
43662;SDS011;74813;56.104;40.358;2024-01-30T13:04:36;10.00;;;4.32;;
43662;SDS011;74813;56.104;40.358;2024-01-30T13:07:09;11.10;;;4.20;;
43662;SDS011;74813;56.104;40.358;2024-01-30T13:09:41;9.63;;;4.78;;
43662;SDS011;74813;56.104;40.358;2024-01-30T13:12:14;11.45;;;4.30;;
43662;SDS011;74813;56.104;40.358;2024-01-30T13:14:46;11.88;;;5.13;;
43662;SDS011;74813;56.104;40.358;2024-01-30T13:17:18;13.13;;;5.30;;
43662;SDS011;74813;56.104;40.358;2024-01-30T13:19:51;11.23;;;5.03;;
43662;SDS011;74813;56.104;40.358;2024-01-30T13:22:23;10.52;;;4.43;;
43662;SDS011;74813;56.104;40.358;2024-01-30T13:24:56;9.45;;;4.40;;
43662;SDS011;74813;56.104;40.358;2024-01-30T13:27:28;12.00;;;4.95;;
43662;SDS011;74813;56.104;40.358;2024-01-30T13:30:01;9.50;;;4.70;;
43662;SDS011;74813;56.104;40.358;2024-01-30T13:32:37;13.73;;;4.97;;
43662;SDS011;74813;56.104;40.358;2024-01-30T13:35:10;11.82;;;5.00;;
43662;SDS011;74813;56.104;40.358;2024-01-30T13:37:42;12.73;;;4.88;;
43662;SDS011;74813;56.104;40.358;2024-01-30T13:40:14;12.68;;;5.18;;
43662;SDS011;74813;56.104;40.358;2024-01-30T13:42:47;12.63;;;5.43;;
43662;SDS011;74813;56.104;40.358;2024-01-30T13:45:20;13.85;;;5.80;;
43662;SDS011;74813;56.104;40.358;2024-01-30T13:47:52;15.82;;;6.10;;
43662;SDS011;74813;56.104;40.358;2024-01-30T13:50:24;14.10;;;6.07;;
43662;SDS011;74813;56.104;40.358;2024-01-30T13:52:57;15.40;;;7.13;;
43662;SDS011;74813;56.104;40.358;2024-01-30T13:55:29;21.42;;;6.72;;
43662;SDS011;74813;56.104;40.358;2024-01-30T13:58:01;17.25;;;6.70;;
43662;SDS011;74813;56.104;40.358;2024-01-30T14:00:34;12.95;;;5.80;;
43662;SDS011;74813;56.104;40.358;2024-01-30T14:03:06;15.13;;;6.32;;
43662;SDS011;74813;56.104;40.358;2024-01-30T14:05:39;14.18;;;6.65;;
43662;SDS011;74813;56.104;40.358;2024-01-30T14:08:11;15.45;;;5.38;;
43662;SDS011;74813;56.104;40.358;2024-01-30T14:10:43;15.40;;;5.72;;
43662;SDS011;74813;56.104;40.358;2024-01-30T14:13:16;12.80;;;5.60;;
43662;SDS011;74813;56.104;40.358;2024-01-30T14:15:48;13.88;;;4.85;;
43662;SDS011;74813;56.104;40.358;2024-01-30T14:18:21;12.93;;;5.38;;
43662;SDS011;74813;56.104;40.358;2024-01-30T14:20:53;14.18;;;5.63;;
43662;SDS011;74813;56.104;40.358;2024-01-30T14:23:25;12.35;;;5.90;;
43662;SDS011;74813;56.104;40.358;2024-01-30T14:25:58;12.75;;;5.57;;
43662;SDS011;74813;56.104;40.358;2024-01-30T14:28:30;14.43;;;5.63;;
43662;SDS011;74813;56.104;40.358;2024-01-30T14:31:02;13.23;;;5.53;;
43662;SDS011;74813;56.104;40.358;2024-01-30T14:33:35;13.60;;;5.93;;
43662;SDS011;74813;56.104;40.358;2024-01-30T14:36:07;15.10;;;7.40;;
43662;SDS011;74813;56.104;40.358;2024-01-30T14:38:40;14.43;;;5.97;;
43662;SDS011;74813;56.104;40.358;2024-01-30T14:41:12;16.33;;;6.70;;
43662;SDS011;74813;56.104;40.358;2024-01-30T14:43:45;13.68;;;5.72;;
43662;SDS011;74813;56.104;40.358;2024-01-30T14:46:17;17.48;;;5.70;;
43662;SDS011;74813;56.104;40.358;2024-01-30T14:48:49;19.10;;;7.43;;
43662;SDS011;74813;56.104;40.358;2024-01-30T14:51:22;18.83;;;8.23;;
43662;SDS011;74813;56.104;40.358;2024-01-30T14:53:54;21.10;;;9.02;;
43662;SDS011;74813;56.104;40.358;2024-01-30T14:56:27;30.73;;;15.20;;